Time;durP1;ratioP1;P1;durP2;ratioP2;P2;SDS_P1;SDS_P2;PMS_P1;PMS_P2;Temp;Humidity;BMP_temperature;BMP_pressure;BME280_temperature;BME280_humidity;BME280_pressure;Samples;Min_cycle;Max_cycle;Signal;HPM_P1;HPM_P2
2024/01/07 00:02:00;;;;;;;7.60;3.70;;;;;;;;;;10363223;23;20020;-84
2024/01/07 00:06:03;;;;;;;17.70;6.57;;;;;;;;;;10353797;22;20012;-87
2024/01/07 00:10:08;;;;;;;8.27;4.97;;;;;;;;;;10388167;22;20020;-84
2024/01/07 00:14:17;;;;;;;3.45;2.55;;;;;;;;;;10360920;22;20092;-87
2024/01/07 00:18:20;;;;;;;6.70;3.42;;;;;;;;;;10362161;22;20035;-84
2024/01/07 00:22:24;;;;;;;17.52;8.15;;;;;;;;;;10361415;22;20052;-85
2024/01/07 00:26:28;;;;;;;9.65;4.72;;;;;;;;;;10361902;22;20107;-84
2024/01/07 00:30:32;;;;;;;7.07;3.67;;;;;;;;;;10364814;22;20444;-82
2024/01/07 00:34:35;;;;;;;7.00;4.03;;;;;;;;;;10393146;22;20435;-86
2024/01/07 00:38:39;;;;;;;7.95;3.15;;;;;;;;;;10366117;22;20046;-86
2024/01/07 00:42:42;;;;;;;6.35;3.35;;;;;;;;;;10391567;22;20149;-87
2024/01/07 00:46:48;;;;;;;7.80;4.75;;;;;;;;;;10364261;22;20031;-87
2024/01/07 00:50:51;;;;;;;7.97;4.75;;;;;;;;;;10364535;22;20455;-84
2024/01/07 00:54:54;;;;;;;11.18;5.60;;;;;;;;;;10391508;22;20101;-86
2024/01/07 00:58:57;;;;;;;31.48;16.23;;;;;;;;;;10364059;22;20069;-86
2024/01/07 01:03:03;;;;;;;10.77;5.90;;;;;;;;;;10364094;22;20090;-82
2024/01/07 01:07:07;;;;;;;6.97;3.95;;;;;;;;;;10364332;22;20386;-88
2024/01/07 01:11:11;;;;;;;18.77;10.25;;;;;;;;;;10363913;22;20069;-84
2024/01/07 01:15:16;;;;;;;7.38;3.60;;;;;;;;;;10365351;22;20027;-85
2024/01/07 01:19:21;;;;;;;4.85;3.03;;;;;;;;;;10390828;22;20091;-89
2024/01/07 01:23:24;;;;;;;7.93;2.92;;;;;;;;;;10407909;22;20073;-89
2024/01/07 01:27:27;;;;;;;5.00;2.47;;;;;;;;;;10363661;22;20035;-87
2024/01/07 01:31:30;;;;;;;4.47;2.85;;;;;;;;;;10390069;22;20027;-87
2024/01/07 01:35:37;;;;;;;5.68;3.35;;;;;;;;;;10363704;22;20100;-89
2024/01/07 01:39:42;;;;;;;4.10;2.40;;;;;;;;;;10363308;22;20020;-85
2024/01/07 01:43:45;;;;;;;6.78;2.78;;;;;;;;;;10390706;22;20098;-88
2024/01/07 01:47:49;;;;;;;5.03;2.90;;;;;;;;;;10389797;22;20016;-86
2024/01/07 01:51:54;;;;;;;8.10;3.70;;;;;;;;;;10390979;22;20024;-86
2024/01/07 01:55:59;;;;;;;3.88;2.53;;;;;;;;;;10363234;22;20023;-86
2024/01/07 02:00:04;;;;;;;10.23;4.75;;;;;;;;;;10390073;22;20444;-86
2024/01/07 02:04:07;;;;;;;5.93;4.13;;;;;;;;;;10363024;22;20073;-85
2024/01/07 02:08:15;;;;;;;4.63;3.05;;;;;;;;;;10362788;22;20051;-85
2024/01/07 02:12:18;;;;;;;5.32;3.28;;;;;;;;;;10362686;22;20065;-84
2024/01/07 02:16:21;;;;;;;6.07;2.92;;;;;;;;;;10411899;22;20023;-87
2024/01/07 02:20:24;;;;;;;5.18;3.00;;;;;;;;;;10362801;22;20016;-83
2024/01/07 02:24:30;;;;;;;6.57;3.08;;;;;;;;;;10362658;22;20026;-87
2024/01/07 02:28:35;;;;;;;6.00;4.00;;;;;;;;;;10362386;22;20024;-83
2024/01/07 02:32:38;;;;;;;7.22;3.45;;;;;;;;;;10391049;22;20039;-84
2024/01/07 02:36:41;;;;;;;4.20;2.30;;;;;;;;;;10362657;22;20023;-85
2024/01/07 02:40:45;;;;;;;4.00;2.55;;;;;;;;;;10388883;22;20015;-85
2024/01/07 02:44:48;;;;;;;8.13;4.38;;;;;;;;;;10388799;22;20016;-85
2024/01/07 02:48:51;;;;;;;4.75;2.95;;;;;;;;;;10362446;22;20102;-82
2024/01/07 02:52:54;;;;;;;4.80;3.17;;;;;;;;;;10389394;22;20016;-83
2024/01/07 02:56:58;;;;;;;4.25;2.75;;;;;;;;;;10388776;22;20043;-85
2024/01/07 03:01:01;;;;;;;3.97;2.92;;;;;;;;;;10388309;22;20077;-83
2024/01/07 03:05:07;;;;;;;1.85;1.75;;;;;;;;;;10389074;22;20023;-87
2024/01/07 03:09:11;;;;;;;3.30;2.30;;;;;;;;;;10405648;22;20026;-86
2024/01/07 03:13:17;;;;;;;4.82;2.92;;;;;;;;;;10388909;22;20004;-87
2024/01/07 03:17:21;;;;;;;6.03;3.05;;;;;;;;;;10385396;22;20019;-85
2024/01/07 03:21:25;;;;;;;6.97;3.55;;;;;;;;;;10388444;22;20050;-84
2024/01/07 03:25:28;;;;;;;2.17;1.98;;;;;;;;;;10361646;22;20035;-84
2024/01/07 03:29:36;;;;;;;8.82;2.00;;;;;;;;;;10390223;22;20062;-86
2024/01/07 03:33:39;;;;;;;5.65;3.25;;;;;;;;;;10361510;22;20111;-88
2024/01/07 03:49:18;;;;;;;4.18;2.80;;;;;;;;;;10059460;23;20028;-84
2024/01/07 03:53:23;;;;;;;2.83;2.15;;;;;;;;;;10133042;23;20053;-88
2024/01/07 03:57:26;;;;;;;3.03;2.45;;;;;;;;;;10134549;23;20344;-83
2024/01/07 04:01:29;;;;;;;3.75;2.65;;;;;;;;;;10111799;23;20056;-84
2024/01/07 04:05:33;;;;;;;7.18;3.58;;;;;;;;;;10138080;23;20494;-87
2024/01/07 04:09:37;;;;;;;5.90;3.00;;;;;;;;;;10137767;23;20512;-87
2024/01/07 04:13:40;;;;;;;4.25;2.90;;;;;;;;;;10113272;23;20026;-86
2024/01/07 04:17:43;;;;;;;8.93;3.30;;;;;;;;;;10160922;23;20051;-84
2024/01/07 04:21:47;;;;;;;3.08;2.47;;;;;;;;;;10290542;23;20332;-86
2024/01/07 04:25:53;;;;;;;6.95;3.17;;;;;;;;;;10267140;23;20445;-88
2024/01/07 04:29:56;;;;;;;4.63;2.85;;;;;;;;;;10307040;23;20520;-87
2024/01/07 04:43:32;;;;;;;4.90;2.97;;;;;;;;;;10356715;23;20460;-83
2024/01/07 04:47:37;;;;;;;5.43;3.30;;;;;;;;;;10339772;23;20016;-85
2024/01/07 04:51:40;;;;;;;8.02;4.20;;;;;;;;;;10368989;22;20360;-86
2024/01/07 04:55:44;;;;;;;6.50;3.38;;;;;;;;;;10390408;22;20020;-86
2024/01/07 04:59:50;;;;;;;5.82;3.22;;;;;;;;;;10390900;22;20044;-87
2024/01/07 05:03:53;;;;;;;6.07;3.22;;;;;;;;;;10363692;22;20019;-84
2024/01/07 05:07:59;;;;;;;4.80;3.10;;;;;;;;;;10390607;22;20085;-86
2024/01/07 05:12:02;;;;;;;3.17;2.42;;;;;;;;;;10363681;22;20103;-84
2024/01/07 05:16:10;;;;;;;10.45;3.20;;;;;;;;;;10390386;22;20063;-87
2024/01/07 05:20:13;;;;;;;7.13;3.50;;;;;;;;;;10362889;22;20026;-83
2024/01/07 05:24:16;;;;;;;3.10;2.53;;;;;;;;;;10394206;22;20077;-87
2024/01/07 05:28:20;;;;;;;5.43;3.33;;;;;;;;;;10363250;22;20460;-88
2024/01/07 05:32:26;;;;;;;4.35;2.58;;;;;;;;;;10363203;22;20093;-86
2024/01/07 05:36:30;;;;;;;4.38;2.67;;;;;;;;;;10390077;22;20134;-87
2024/01/07 05:40:32;;;;;;;4.30;2.58;;;;;;;;;;10363204;22;20130;-87
2024/01/07 05:44:35;;;;;;;4.38;2.83;;;;;;;;;;10362826;22;20153;-87
2024/01/07 05:48:47;;;;;;;3.08;1.83;;;;;;;;;;10389901;22;20333;-88
2024/01/07 05:52:50;;;;;;;5.30;2.72;;;;;;;;;;10406575;22;20016;-86
2024/01/07 05:56:53;;;;;;;2.88;2.28;;;;;;;;;;10389654;22;20030;-84
2024/01/07 06:01:00;;;;;;;5.20;2.92;;;;;;;;;;10389488;22;20087;-84
2024/01/07 06:05:05;;;;;;;7.28;3.35;;;;;;;;;;10391123;22;20164;-82
2024/01/07 06:09:08;;;;;;;3.65;2.45;;;;;;;;;;10390059;22;20432;-85
2024/01/07 06:13:12;;;;;;;4.13;2.03;;;;;;;;;;10389175;22;20026;-88
2024/01/07 06:17:15;;;;;;;5.43;3.10;;;;;;;;;;10389768;22;20022;-87
2024/01/07 06:21:19;;;;;;;5.18;3.17;;;;;;;;;;10389165;22;20015;-88
2024/01/07 06:25:48;;;;;;;6.03;3.90;;;;;;;;;;10338908;22;20065;-87
2024/01/07 06:29:51;;;;;;;12.52;3.45;;;;;;;;;;10389291;22;20043;-83
2024/01/07 06:33:55;;;;;;;7.55;4.32;;;;;;;;;;10362231;22;20099;-83
2024/01/07 06:38:00;;;;;;;14.63;9.52;;;;;;;;;;10361617;22;20042;-84
2024/01/07 06:42:03;;;;;;;5.05;3.35;;;;;;;;;;10389522;22;20383;-85
2024/01/07 06:46:06;;;;;;;3.45;2.55;;;;;;;;;;10388727;22;20022;-86
2024/01/07 06:50:11;;;;;;;10.07;3.45;;;;;;;;;;10389177;22;20115;-88
2024/01/07 06:54:15;;;;;;;5.80;2.88;;;;;;;;;;10388945;22;20023;-86
2024/01/07 06:58:18;;;;;;;6.50;4.55;;;;;;;;;;10388363;22;20352;-88
2024/01/07 07:02:23;;;;;;;6.03;3.55;;;;;;;;;;10389635;22;20400;-89
2024/01/07 07:06:26;;;;;;;6.15;3.25;;;;;;;;;;10339481;22;20070;-87
2024/01/07 07:10:32;;;;;;;6.15;3.10;;;;;;;;;;10388463;22;20015;-88
2024/01/07 07:14:36;;;;;;;7.82;3.35;;;;;;;;;;10361820;22;20019;-84
2024/01/07 07:18:44;;;;;;;4.20;2.67;;;;;;;;;;10361843;22;20050;-82
2024/01/07 07:22:47;;;;;;;8.27;3.53;;;;;;;;;;10404791;22;20077;-86
2024/01/07 07:26:55;;;;;;;1.95;1.70;;;;;;;;;;10388252;22;20439;-84
2024/01/07 07:30:59;;;;;;;7.95;4.07;;;;;;;;;;10388550;22;20037;-85
2024/01/07 07:35:02;;;;;;;6.93;3.20;;;;;;;;;;10389571;22;20096;-84
2024/01/07 07:44:50;;;;;;;9.50;3.85;;;;;;;;;;9866860;24;20091;-85
2024/01/07 07:48:56;;;;;;;4.25;2.58;;;;;;;;;;10116146;23;20088;-87
2024/01/07 07:52:58;;;;;;;12.82;7.18;;;;;;;;;;10200625;23;20025;-87
2024/01/07 07:57:02;;;;;;;12.18;7.20;;;;;;;;;;10183847;23;20509;-87
2024/01/07 08:01:08;;;;;;;9.32;4.55;;;;;;;;;;10158291;23;20288;-84
2024/01/07 08:05:11;;;;;;;8.57;5.30;;;;;;;;;;10158457;23;20026;-85
2024/01/07 08:09:13;;;;;;;10.90;4.85;;;;;;;;;;10183534;23;20032;-84
2024/01/07 08:13:17;;;;;;;11.50;6.40;;;;;;;;;;10183668;23;20029;-85
2024/01/07 08:17:21;;;;;;;9.38;4.60;;;;;;;;;;10367054;22;20022;-82
2024/01/07 08:21:24;;;;;;;13.95;6.53;;;;;;;;;;10388477;22;20091;-89
2024/01/07 08:29:38;;;;;;;8.80;4.90;;;;;;;;;;10334909;23;20093;-84
2024/01/07 08:33:45;;;;;;;7.90;3.38;;;;;;;;;;10337518;23;20016;-89
2024/01/07 08:37:48;;;;;;;27.33;7.13;;;;;;;;;;10310673;23;20051;-84
2024/01/07 08:41:52;;;;;;;8.52;3.85;;;;;;;;;;10337647;23;20054;-86
2024/01/07 08:45:57;;;;;;;4.18;2.70;;;;;;;;;;10337573;23;20091;-88
2024/01/07 08:50:03;;;;;;;6.88;3.80;;;;;;;;;;10313303;23;20069;-83
2024/01/07 08:54:06;;;;;;;7.57;4.43;;;;;;;;;;10313886;23;20440;-83
2024/01/07 08:58:09;;;;;;;5.75;3.17;;;;;;;;;;10314156;23;20039;-86
2024/01/07 09:02:12;;;;;;;11.43;5.85;;;;;;;;;;10313563;23;20027;-83
2024/01/07 09:06:16;;;;;;;9.07;4.18;;;;;;;;;;10339867;23;20016;-84
2024/01/07 09:10:20;;;;;;;27.50;11.38;;;;;;;;;;10339860;23;20020;-84
2024/01/07 09:14:25;;;;;;;54.70;12.98;;;;;;;;;;10340023;23;20062;-87
2024/01/07 09:18:28;;;;;;;25.70;9.52;;;;;;;;;;10313349;23;20107;-83
2024/01/07 09:22:32;;;;;;;14.82;5.35;;;;;;;;;;10313589;23;20046;-84
2024/01/07 09:26:35;;;;;;;7.30;4.00;;;;;;;;;;10312638;23;20043;-83
2024/01/07 09:30:38;;;;;;;21.33;8.82;;;;;;;;;;10339244;23;20052;-86
2024/01/07 09:34:41;;;;;;;9.52;5.25;;;;;;;;;;10342307;23;20050;-84
2024/01/07 09:38:45;;;;;;;16.67;7.10;;;;;;;;;;10340071;23;20524;-84
2024/01/07 09:42:49;;;;;;;9.98;5.40;;;;;;;;;;10340316;23;20020;-82
2024/01/07 09:46:52;;;;;;;21.48;7.35;;;;;;;;;;10341087;23;20375;-88
2024/01/07 09:50:56;;;;;;;13.73;5.10;;;;;;;;;;10341428;23;20099;-88
2024/01/07 09:55:05;;;;;;;6.90;4.22;;;;;;;;;;10341506;23;20020;-90
2024/01/07 09:59:11;;;;;;;10.82;5.43;;;;;;;;;;10313324;23;20036;-91
2024/01/07 10:03:15;;;;;;;9.15;5.80;;;;;;;;;;10312787;23;20020;-88
2024/01/07 10:07:18;;;;;;;14.43;6.57;;;;;;;;;;10311755;23;20083;-83
2024/01/07 10:11:23;;;;;;;18.85;8.48;;;;;;;;;;10337854;23;20445;-83
2024/01/07 10:15:29;;;;;;;14.50;6.75;;;;;;;;;;10312720;23;20025;-81
2024/01/07 10:19:32;;;;;;;21.10;7.90;;;;;;;;;;10312207;23;20016;-83
2024/01/07 10:23:35;;;;;;;15.57;6.43;;;;;;;;;;10312175;23;20091;-86
2024/01/07 10:27:40;;;;;;;73.00;18.70;;;;;;;;;;10338389;23;20020;-89
2024/01/07 10:31:44;;;;;;;29.95;10.35;;;;;;;;;;10316463;23;20082;-88
2024/01/07 10:35:54;;;;;;;12.57;6.20;;;;;;;;;;10312011;23;20020;-90
2024/01/07 10:40:02;;;;;;;17.92;7.93;;;;;;;;;;10312621;23;20375;-88
2024/01/07 10:44:10;;;;;;;10.40;6.20;;;;;;;;;;10338635;23;20028;-86
2024/01/07 10:48:18;;;;;;;6.60;4.32;;;;;;;;;;10312567;23;20016;-84
2024/01/07 10:52:23;;;;;;;17.23;6.97;;;;;;;;;;10355281;23;20024;-88
2024/01/07 10:56:30;;;;;;;8.20;5.03;;;;;;;;;;10339175;23;20016;-88
2024/01/07 11:00:35;;;;;;;21.55;8.30;;;;;;;;;;10339335;23;20404;-88
2024/01/07 11:04:46;;;;;;;16.85;7.00;;;;;;;;;;10355259;23;20081;-86
2024/01/07 11:08:57;;;;;;;19.23;8.77;;;;;;;;;;10358521;23;20020;-82
2024/01/07 11:13:00;;;;;;;38.13;9.27;;;;;;;;;;10355600;23;20383;-89
2024/01/07 11:17:07;;;;;;;20.13;7.93;;;;;;;;;;10339376;23;20766;-84
2024/01/07 11:21:10;;;;;;;25.48;10.88;;;;;;;;;;10355898;23;20020;-86
2024/01/07 11:25:33;;;;;;;17.60;7.60;;;;;;;;;;10338208;23;20043;-84
2024/01/07 11:29:57;;;;;;;11.88;6.93;;;;;;;;;;10339437;22;20098;-84
2024/01/07 11:34:02;;;;;;;15.75;6.22;;;;;;;;;;10405271;22;20047;-87
2024/01/07 11:38:05;;;;;;;13.48;6.13;;;;;;;;;;10361870;22;20440;-88
2024/01/07 11:42:09;;;;;;;15.30;7.10;;;;;;;;;;10361852;22;20016;-87
2024/01/07 11:46:12;;;;;;;11.77;6.88;;;;;;;;;;10361496;22;20119;-81
2024/01/07 11:50:17;;;;;;;5.70;3.47;;;;;;;;;;10388877;22;20026;-81
2024/01/07 11:54:21;;;;;;;22.80;8.55;;;;;;;;;;10388367;22;20024;-87
2024/01/07 11:58:24;;;;;;;15.02;5.95;;;;;;;;;;10361201;22;20098;-85
2024/01/07 12:02:30;;;;;;;13.65;7.07;;;;;;;;;;10388287;22;20114;-82
2024/01/07 12:06:36;;;;;;;12.50;6.13;;;;;;;;;;10361018;22;20050;-82
2024/01/07 12:10:39;;;;;;;10.25;4.22;;;;;;;;;;10388323;22;20023;-83
2024/01/07 12:14:42;;;;;;;9.57;5.30;;;;;;;;;;10387425;22;20023;-81
2024/01/07 12:18:45;;;;;;;13.82;5.75;;;;;;;;;;10387500;22;20486;-85
2024/01/07 12:22:49;;;;;;;11.32;5.93;;;;;;;;;;10388725;22;20052;-81
2024/01/07 12:26:54;;;;;;;9.35;5.57;;;;;;;;;;10391231;22;20095;-81
2024/01/07 12:30:57;;;;;;;18.83;8.52;;;;;;;;;;10390576;22;20519;-84
2024/01/07 12:35:00;;;;;;;14.18;7.20;;;;;;;;;;10390866;22;20047;-86
2024/01/07 12:39:08;;;;;;;16.10;5.68;;;;;;;;;;10407353;22;20015;-81
2024/01/07 12:43:11;;;;;;;14.32;5.53;;;;;;;;;;10390706;22;20020;-86
2024/01/07 12:47:14;;;;;;;13.82;7.85;;;;;;;;;;10390961;22;20046;-83
2024/01/07 12:51:17;;;;;;;20.42;10.15;;;;;;;;;;10363565;22;20069;-87
2024/01/07 13:05:11;;;;;;;13.77;6.13;;;;;;;;;;10237490;22;20020;-85
2024/01/07 13:09:14;;;;;;;21.58;8.25;;;;;;;;;;10363240;22;20348;-87
2024/01/07 13:13:17;;;;;;;20.98;7.25;;;;;;;;;;10390496;22;20070;-83
2024/01/07 13:17:21;;;;;;;16.00;7.32;;;;;;;;;;10363582;22;20328;-82
2024/01/07 13:21:26;;;;;;;15.30;7.30;;;;;;;;;;10363424;22;20015;-84
2024/01/07 13:25:30;;;;;;;28.23;9.73;;;;;;;;;;10366602;22;20087;-86
2024/01/07 13:29:33;;;;;;;16.98;7.82;;;;;;;;;;10363736;22;20089;-83
2024/01/07 13:33:36;;;;;;;23.25;8.63;;;;;;;;;;10389649;22;20015;-82
2024/01/07 13:37:42;;;;;;;15.23;6.90;;;;;;;;;;10389967;22;20019;-82
2024/01/07 13:41:45;;;;;;;11.35;7.15;;;;;;;;;;10406680;22;20485;-84
2024/01/07 13:45:48;;;;;;;13.05;6.22;;;;;;;;;;10390710;22;20020;-83
2024/01/07 13:49:51;;;;;;;12.27;6.47;;;;;;;;;;10363045;22;20023;-82
2024/01/07 13:53:56;;;;;;;8.95;4.63;;;;;;;;;;10362946;22;20344;-85
2024/01/07 13:57:59;;;;;;;20.25;8.38;;;;;;;;;;10389218;22;20020;-83
2024/01/07 14:02:02;;;;;;;9.85;6.55;;;;;;;;;;10407043;22;20019;-84
2024/01/07 14:06:05;;;;;;;24.92;10.48;;;;;;;;;;10389803;22;20023;-86
2024/01/07 14:10:10;;;;;;;29.67;10.50;;;;;;;;;;10389459;22;20095;-88
2024/01/07 14:14:13;;;;;;;88.22;20.83;;;;;;;;;;10388782;22;20097;-87
2024/01/07 14:18:21;;;;;;;24.90;9.52;;;;;;;;;;10389730;22;20019;-86
2024/01/07 14:22:25;;;;;;;68.10;22.08;;;;;;;;;;10362644;22;20027;-87
2024/01/07 14:26:29;;;;;;;75.78;23.63;;;;;;;;;;10362491;22;20023;-87
2024/01/07 14:30:33;;;;;;;216.68;51.65;;;;;;;;;;10362373;22;20077;-87
2024/01/07 14:34:39;;;;;;;21.88;10.13;;;;;;;;;;10389282;22;20023;-87
2024/01/07 14:38:43;;;;;;;14.07;6.82;;;;;;;;;;10362402;22;20073;-86
2024/01/07 14:42:48;;;;;;;24.38;8.20;;;;;;;;;;10362225;22;20016;-87
2024/01/07 14:46:52;;;;;;;14.25;5.68;;;;;;;;;;10361813;22;20062;-87
2024/01/07 14:50:55;;;;;;;20.00;7.80;;;;;;;;;;10361610;22;20019;-87
2024/01/07 14:54:58;;;;;;;12.55;5.85;;;;;;;;;;10388522;22;20054;-87
2024/01/07 14:59:04;;;;;;;14.77;7.90;;;;;;;;;;10361646;22;20023;-89
2024/01/07 15:03:08;;;;;;;17.83;7.93;;;;;;;;;;10363571;22;20317;-87
2024/01/07 15:07:11;;;;;;;17.45;8.07;;;;;;;;;;10389261;22;20057;-86
2024/01/07 15:11:15;;;;;;;14.90;7.47;;;;;;;;;;10388914;22;20095;-83
2024/01/07 15:15:20;;;;;;;16.85;8.55;;;;;;;;;;10388268;22;20047;-88
2024/01/07 15:19:23;;;;;;;22.73;8.18;;;;;;;;;;10408271;22;20447;-85
2024/01/07 15:23:29;;;;;;;30.20;9.75;;;;;;;;;;10388534;22;20015;-85
2024/01/07 15:27:33;;;;;;;25.15;10.73;;;;;;;;;;10362175;22;20023;-83
2024/01/07 15:31:39;;;;;;;17.13;6.53;;;;;;;;;;10389755;22;20072;-89
2024/01/07 15:35:42;;;;;;;16.15;5.93;;;;;;;;;;10361735;22;20020;-81
2024/01/07 15:44:56;;;;;;;9.75;5.22;;;;;;;;;;10113520;23;20022;-88
2024/01/07 15:49:01;;;;;;;13.73;6.20;;;;;;;;;;10290173;22;20055;-88
2024/01/07 15:53:05;;;;;;;16.98;8.77;;;;;;;;;;10404939;22;20051;-83
2024/01/07 15:57:08;;;;;;;17.85;7.88;;;;;;;;;;10360982;22;20046;-87
2024/01/07 16:01:12;;;;;;;10.38;5.88;;;;;;;;;;10361665;22;20031;-87
2024/01/07 16:05:19;;;;;;;10.07;5.13;;;;;;;;;;10361244;22;20020;-87
2024/01/07 16:09:22;;;;;;;5.32;3.88;;;;;;;;;;10404990;22;20470;-87
2024/01/07 16:13:30;;;;;;;12.52;7.07;;;;;;;;;;10388421;22;20015;-87
2024/01/07 16:17:34;;;;;;;13.27;6.47;;;;;;;;;;10364489;22;20102;-87
2024/01/07 16:21:39;;;;;;;15.23;6.35;;;;;;;;;;10363714;22;20022;-88
2024/01/07 16:25:42;;;;;;;13.23;5.93;;;;;;;;;;10362095;22;20030;-83
2024/01/07 16:29:46;;;;;;;13.65;6.03;;;;;;;;;;10362265;22;20011;-87
2024/01/07 16:33:49;;;;;;;16.45;8.57;;;;;;;;;;10362079;22;20024;-83
2024/01/07 16:37:55;;;;;;;14.85;7.32;;;;;;;;;;10362735;22;20020;-85
2024/01/07 16:41:58;;;;;;;11.55;5.90;;;;;;;;;;10361468;22;20051;-88
2024/01/07 16:46:05;;;;;;;10.48;5.72;;;;;;;;;;10363251;22;20024;-87
2024/01/07 16:50:09;;;;;;;14.20;7.47;;;;;;;;;;10361288;22;20015;-87
2024/01/07 16:54:23;;;;;;;8.18;4.57;;;;;;;;;;10360682;22;20317;-86
2024/01/07 16:58:27;;;;;;;12.98;4.28;;;;;;;;;;10360967;22;20398;-88
2024/01/07 17:02:30;;;;;;;17.20;7.43;;;;;;;;;;10361131;22;20515;-82
2024/01/07 17:06:33;;;;;;;21.27;7.35;;;;;;;;;;10388544;22;20087;-83
2024/01/07 17:10:39;;;;;;;14.70;8.05;;;;;;;;;;10389967;22;20015;-83
2024/01/07 17:14:42;;;;;;;16.42;7.30;;;;;;;;;;10408480;22;20055;-86
2024/01/07 17:18:45;;;;;;;14.77;8.60;;;;;;;;;;10391141;22;20042;-86
2024/01/07 17:22:48;;;;;;;21.33;10.18;;;;;;;;;;10390824;22;20043;-88
2024/01/07 17:26:58;;;;;;;17.55;8.32;;;;;;;;;;10364730;22;20019;-82
2024/01/07 17:31:03;;;;;;;13.82;4.55;;;;;;;;;;10364221;22;20073;-90
2024/01/07 17:35:07;;;;;;;13.95;7.50;;;;;;;;;;10363533;22;20073;-82
2024/01/07 17:39:11;;;;;;;7.60;4.72;;;;;;;;;;10363451;22;20038;-87
2024/01/07 17:43:18;;;;;;;8.68;4.38;;;;;;;;;;10363110;22;20463;-85
2024/01/07 17:47:21;;;;;;;15.27;7.95;;;;;;;;;;10407371;22;20439;-85
2024/01/07 17:51:24;;;;;;;14.43;7.70;;;;;;;;;;10389835;22;20020;-86
2024/01/07 17:55:27;;;;;;;12.68;5.72;;;;;;;;;;10363925;22;20019;-83
2024/01/07 17:59:35;;;;;;;8.07;6.22;;;;;;;;;;10364899;22;20087;-89
2024/01/07 18:03:38;;;;;;;13.35;6.32;;;;;;;;;;10364193;22;20020;-82
2024/01/07 18:07:41;;;;;;;15.57;8.40;;;;;;;;;;10364718;22;20032;-88
2024/01/07 18:11:44;;;;;;;19.75;9.30;;;;;;;;;;10390079;22;20470;-85
2024/01/07 18:15:49;;;;;;;15.07;8.27;;;;;;;;;;10389713;22;20091;-83
2024/01/07 18:19:52;;;;;;;11.38;5.28;;;;;;;;;;10363362;22;20096;-82
2024/01/07 18:23:55;;;;;;;17.20;6.68;;;;;;;;;;10363245;22;20016;-91
2024/01/07 18:27:58;;;;;;;17.27;8.60;;;;;;;;;;10390007;22;20022;-84
2024/01/07 18:32:04;;;;;;;17.92;8.40;;;;;;;;;;10390345;22;20015;-88
2024/01/07 18:36:09;;;;;;;13.85;6.60;;;;;;;;;;10406851;22;20073;-83
2024/01/07 18:40:19;;;;;;;15.25;6.40;;;;;;;;;;10389624;22;20121;-89
2024/01/07 18:44:28;;;;;;;11.25;5.70;;;;;;;;;;10410037;22;20016;-85
2024/01/07 18:48:33;;;;;;;13.90;6.50;;;;;;;;;;10366182;22;20031;-84
2024/01/07 18:52:37;;;;;;;9.32;4.75;;;;;;;;;;10367217;22;20313;-87
2024/01/07 18:56:41;;;;;;;12.75;5.95;;;;;;;;;;10362262;22;20024;-87
2024/01/07 19:00:47;;;;;;;6.85;3.17;;;;;;;;;;10388368;22;20045;-85
2024/01/07 19:04:55;;;;;;;15.25;7.68;;;;;;;;;;10388623;22;20327;-83
2024/01/07 19:08:58;;;;;;;14.88;8.50;;;;;;;;;;10361302;22;20027;-87
2024/01/07 19:13:04;;;;;;;19.25;9.25;;;;;;;;;;10388563;22;20020;-85
2024/01/07 19:17:09;;;;;;;40.47;14.20;;;;;;;;;;10404981;22;20015;-87
2024/01/07 19:21:17;;;;;;;13.57;6.70;;;;;;;;;;10391111;22;20054;-88
2024/01/07 19:25:46;;;;;;;16.05;6.65;;;;;;;;;;10348195;22;20016;-90
2024/01/07 19:29:51;;;;;;;13.30;5.63;;;;;;;;;;10336900;23;20050;-89
2024/01/07 19:33:56;;;;;;;9.98;5.30;;;;;;;;;;10387240;22;20039;-81
2024/01/07 19:38:01;;;;;;;14.98;5.60;;;;;;;;;;10387744;22;20019;-86
2024/01/07 19:42:04;;;;;;;5.75;2.85;;;;;;;;;;10387751;22;20040;-86
2024/01/07 19:46:07;;;;;;;15.32;7.15;;;;;;;;;;10388204;22;20027;-85
2024/01/07 19:50:11;;;;;;;17.88;6.93;;;;;;;;;;10391883;22;20020;-87
2024/01/07 19:54:19;;;;;;;5.85;2.85;;;;;;;;;;10387707;22;20012;-83
2024/01/07 19:58:22;;;;;;;13.50;7.18;;;;;;;;;;10388423;22;20393;-84
2024/01/07 20:02:26;;;;;;;8.38;5.57;;;;;;;;;;10387373;22;20087;-83
2024/01/07 20:06:31;;;;;;;18.45;6.55;;;;;;;;;;10404643;22;20022;-89
2024/01/07 20:10:37;;;;;;;11.52;7.03;;;;;;;;;;10387967;22;20027;-83
2024/01/07 20:14:41;;;;;;;13.05;6.50;;;;;;;;;;10404331;22;20091;-87
2024/01/07 20:18:45;;;;;;;12.25;5.38;;;;;;;;;;10364257;22;20093;-84
2024/01/07 20:22:48;;;;;;;12.75;7.13;;;;;;;;;;10388488;22;20015;-83
2024/01/07 20:26:55;;;;;;;10.88;6.70;;;;;;;;;;10387300;22;20077;-86
2024/01/07 20:30:59;;;;;;;15.20;6.85;;;;;;;;;;10404319;22;20047;-88
2024/01/07 20:35:03;;;;;;;6.78;4.50;;;;;;;;;;10404317;22;20047;-86
2024/01/07 20:39:08;;;;;;;7.80;4.63;;;;;;;;;;10387328;22;20456;-86
2024/01/07 20:44:15;;;;;;;19.80;6.72;;;;;;;;;;10388112;22;20054;-88
2024/01/07 20:48:33;;;;;;;12.32;5.85;;;;;;;;;;10390794;22;20046;-87
2024/01/07 20:52:36;;;;;;;13.30;6.65;;;;;;;;;;10407491;22;20061;-84
2024/01/07 20:56:42;;;;;;;18.52;7.00;;;;;;;;;;10415224;22;20015;-83
2024/01/07 21:00:46;;;;;;;15.38;7.50;;;;;;;;;;10401614;22;20015;-85
2024/01/07 21:04:52;;;;;;;18.35;7.85;;;;;;;;;;10390673;22;20022;-88
2024/01/07 21:08:55;;;;;;;27.33;6.70;;;;;;;;;;10409490;22;20586;-89
2024/01/07 21:12:59;;;;;;;10.77;5.95;;;;;;;;;;10364329;22;20019;-88
2024/01/07 21:17:02;;;;;;;21.15;9.27;;;;;;;;;;10364066;22;20020;-87
2024/01/07 21:21:07;;;;;;;23.55;9.60;;;;;;;;;;10363710;22;20095;-87
2024/01/07 21:25:14;;;;;;;17.20;8.15;;;;;;;;;;10390317;22;20479;-88
2024/01/07 21:29:19;;;;;;;23.40;9.65;;;;;;;;;;10389662;22;20107;-87
2024/01/07 21:33:43;;;;;;;;;;;;;;;;;;;;;
2024/01/07 21:38:16;;;;;;;27.25;10.30;;;;;;;;;;10388015;22;20058;-87
2024/01/07 21:42:19;;;;;;;12.88;5.78;;;;;;;;;;10406969;22;20023;-89
2024/01/07 21:46:22;;;;;;;15.32;8.05;;;;;;;;;;10371901;22;20498;-86
2024/01/07 21:50:25;;;;;;;12.75;6.22;;;;;;;;;;10411376;22;20071;-83
2024/01/07 21:54:30;;;;;;;20.85;9.40;;;;;;;;;;10396846;22;20019;-86
2024/01/07 21:58:34;;;;;;;13.82;6.20;;;;;;;;;;10362696;22;20026;-88
2024/01/07 22:02:37;;;;;;;15.40;6.07;;;;;;;;;;10383050;22;20038;-85
2024/01/07 22:06:41;;;;;;;24.90;9.07;;;;;;;;;;10368927;22;20027;-86
2024/01/07 22:10:46;;;;;;;21.73;9.40;;;;;;;;;;10389700;22;20099;-88
2024/01/07 22:28:51;;;;;;;6.68;4.05;;;;;;;;;;10237459;23;20028;-85
2024/01/07 22:32:54;;;;;;;9.13;4.68;;;;;;;;;;10261815;23;20091;-86
2024/01/07 22:36:58;;;;;;;23.65;9.98;;;;;;;;;;10287822;23;20044;-84
2024/01/07 22:41:02;;;;;;;19.80;7.32;;;;;;;;;;10287382;23;20361;-87
2024/01/07 22:45:09;;;;;;;20.80;8.27;;;;;;;;;;10261737;23;20020;-80
2024/01/07 22:49:12;;;;;;;18.63;7.40;;;;;;;;;;10304266;23;20406;-87
2024/01/07 22:53:16;;;;;;;20.27;8.10;;;;;;;;;;10287278;23;20023;-86
2024/01/07 22:57:19;;;;;;;10.80;6.03;;;;;;;;;;10287853;23;20016;-83
2024/01/07 23:11:54;;;;;;;22.55;10.68;;;;;;;;;;10287257;23;20037;-80
2024/01/07 23:15:56;;;;;;;18.75;8.30;;;;;;;;;;10286929;23;20027;-82
2024/01/07 23:20:00;;;;;;;17.52;7.90;;;;;;;;;;10287072;23;20071;-86
2024/01/07 23:25:10;;;;;;;11.88;6.53;;;;;;;;;;10319647;23;20012;-86
2024/01/07 23:29:15;;;;;;;25.25;10.93;;;;;;;;;;10337732;23;20020;-81
2024/01/07 23:33:18;;;;;;;16.63;8.43;;;;;;;;;;10310499;23;20024;-83
2024/01/07 23:37:21;;;;;;;17.27;6.70;;;;;;;;;;10337162;23;20334;-82
2024/01/07 23:41:27;;;;;;;21.13;10.05;;;;;;;;;;10337048;23;20321;-85
2024/01/07 23:45:31;;;;;;;25.88;12.68;;;;;;;;;;10354094;23;20016;-82
2024/01/07 23:49:35;;;;;;;18.13;7.13;;;;;;;;;;10336924;23;20501;-83
2024/01/07 23:53:38;;;;;;;24.75;12.07;;;;;;;;;;10336529;23;20356;-85
2024/01/07 23:57:41;;;;;;;18.02;8.50;;;;;;;;;;10336715;23;20023;-87
